Main page
METAR-TAF:

METAR-TAF

Airports :

Rome-Fiumicino, Italy

Leonardo da Vinci–Fiumicino Airport

latitude: 41-48N, longitude: 012-14E, elevation: 2 m

Current weather observation

The report was made 16 minutes ago, at 05:50 UTC
Wind 3 kt from the West/Northwest
Temperature 9°C
Humidity 61%
Pressure 1016 hPa
Visibility 10 km or more
no clouds below 1500 m and no cumulonimbus

METAR: LIRF 240550Z 30003KT CAVOK 09/02 Q1016 NOSIG

Time: 08:06 (06:06 UTC)

Forecast

The report was made 1 hour and 6 minutes ago, at 05:00 UTC
Forecast valid from 24 at 06 UTC to 25 at 12 UTC
Wind 8 kt from the North/Northeast
Visibility 10 km or more
no clouds below 1500 m and no cumulonimbus
Becoming
from 24 at 07 UTC to 24 at 09 UTC
Wind 18 kt from the North

TAF: LIRF 240500Z 2406/2512 02008KT CAVOK BECMG 2407/2409 01018KT

Weather observations and forecasts of more than 4000 airports (METAR and TAF reports).

The available stations are represented by yellow and red dots on the map.

Hover mouse over dot to see the name of the station.

Then click to see weather observations and forecasts.

To change the map : click on the green buttons with a black cross to zoom in, on the green button with a dash to zoom out, or on the green arrows for adjacent maps.


METAR-TAF: